sensor_id;sensor_type;location;lat;lon;timestamp;P1;durP1;ratioP1;P2;durP2;ratioP2
10934;SDS011;5520;45.752;4.874;2022-10-31T00:01:27;10.40;;;4.93;;
10934;SDS011;5520;45.752;4.874;2022-10-31T00:03:58;13.97;;;5.77;;
10934;SDS011;5520;45.752;4.874;2022-10-31T00:06:26;13.10;;;5.50;;
10934;SDS011;5520;45.752;4.874;2022-10-31T00:08:56;12.07;;;5.17;;
10934;SDS011;5520;45.752;4.874;2022-10-31T00:11:24;12.40;;;5.40;;
10934;SDS011;5520;45.752;4.874;2022-10-31T00:13:52;12.50;;;5.23;;
10934;SDS011;5520;45.752;4.874;2022-10-31T00:16:21;16.13;;;5.47;;
10934;SDS011;5520;45.752;4.874;2022-10-31T00:18:48;7.97;;;5.03;;
10934;SDS011;5520;45.752;4.874;2022-10-31T00:21:18;14.70;;;5.97;;
10934;SDS011;5520;45.752;4.874;2022-10-31T00:23:46;12.67;;;5.60;;
10934;SDS011;5520;45.752;4.874;2022-10-31T00:26:13;11.33;;;4.90;;
10934;SDS011;5520;45.752;4.874;2022-10-31T00:28:41;10.50;;;5.10;;
10934;SDS011;5520;45.752;4.874;2022-10-31T00:31:09;12.30;;;4.93;;
10934;SDS011;5520;45.752;4.874;2022-10-31T00:33:37;9.77;;;5.23;;
10934;SDS011;5520;45.752;4.874;2022-10-31T00:36:06;15.40;;;6.30;;
10934;SDS011;5520;45.752;4.874;2022-10-31T00:38:35;8.17;;;4.50;;
10934;SDS011;5520;45.752;4.874;2022-10-31T00:41:03;12.47;;;5.37;;
10934;SDS011;5520;45.752;4.874;2022-10-31T00:43:31;14.00;;;4.67;;
10934;SDS011;5520;45.752;4.874;2022-10-31T00:45:58;11.87;;;4.93;;
10934;SDS011;5520;45.752;4.874;2022-10-31T00:48:26;13.53;;;5.27;;
10934;SDS011;5520;45.752;4.874;2022-10-31T00:50:54;13.53;;;5.60;;
10934;SDS011;5520;45.752;4.874;2022-10-31T00:53:22;10.00;;;5.40;;
10934;SDS011;5520;45.752;4.874;2022-10-31T00:55:51;8.47;;;5.20;;
10934;SDS011;5520;45.752;4.874;2022-10-31T00:58:18;12.93;;;5.57;;
10934;SDS011;5520;45.752;4.874;2022-10-31T01:00:46;11.80;;;5.67;;
10934;SDS011;5520;45.752;4.874;2022-10-31T01:03:21;10.33;;;5.17;;
10934;SDS011;5520;45.752;4.874;2022-10-31T01:05:56;10.40;;;4.67;;
10934;SDS011;5520;45.752;4.874;2022-10-31T01:08:24;13.23;;;4.90;;
10934;SDS011;5520;45.752;4.874;2022-10-31T01:11:00;8.93;;;4.93;;
10934;SDS011;5520;45.752;4.874;2022-10-31T01:13:28;10.00;;;5.20;;
10934;SDS011;5520;45.752;4.874;2022-10-31T01:15:56;10.40;;;5.43;;
10934;SDS011;5520;45.752;4.874;2022-10-31T01:18:24;13.33;;;6.23;;
10934;SDS011;5520;45.752;4.874;2022-10-31T01:20:59;14.10;;;6.03;;
10934;SDS011;5520;45.752;4.874;2022-10-31T01:23:27;8.13;;;4.93;;
10934;SDS011;5520;45.752;4.874;2022-10-31T01:26:00;14.03;;;5.97;;
10934;SDS011;5520;45.752;4.874;2022-10-31T01:28:28;11.13;;;6.30;;
10934;SDS011;5520;45.752;4.874;2022-10-31T01:30:59;8.53;;;5.03;;
10934;SDS011;5520;45.752;4.874;2022-10-31T01:33:27;8.27;;;4.77;;
10934;SDS011;5520;45.752;4.874;2022-10-31T01:35:55;11.80;;;5.80;;
10934;SDS011;5520;45.752;4.874;2022-10-31T01:38:23;9.03;;;5.23;;
10934;SDS011;5520;45.752;4.874;2022-10-31T01:40:51;13.43;;;6.20;;
10934;SDS011;5520;45.752;4.874;2022-10-31T01:43:20;10.90;;;5.37;;
10934;SDS011;5520;45.752;4.874;2022-10-31T01:45:50;10.53;;;5.53;;
10934;SDS011;5520;45.752;4.874;2022-10-31T01:48:18;8.43;;;5.63;;
10934;SDS011;5520;45.752;4.874;2022-10-31T01:50:47;12.70;;;6.53;;
10934;SDS011;5520;45.752;4.874;2022-10-31T01:53:15;9.83;;;5.00;;
10934;SDS011;5520;45.752;4.874;2022-10-31T01:55:51;14.77;;;5.33;;
10934;SDS011;5520;45.752;4.874;2022-10-31T01:58:21;14.10;;;5.90;;
10934;SDS011;5520;45.752;4.874;2022-10-31T02:00:51;14.37;;;5.63;;
10934;SDS011;5520;45.752;4.874;2022-10-31T02:03:19;8.33;;;5.13;;
10934;SDS011;5520;45.752;4.874;2022-10-31T02:05:50;11.43;;;5.97;;
10934;SDS011;5520;45.752;4.874;2022-10-31T02:08:20;9.07;;;5.17;;
10934;SDS011;5520;45.752;4.874;2022-10-31T02:10:49;9.27;;;4.93;;
10934;SDS011;5520;45.752;4.874;2022-10-31T02:13:17;16.73;;;5.47;;
10934;SDS011;5520;45.752;4.874;2022-10-31T02:15:47;13.53;;;5.13;;
10934;SDS011;5520;45.752;4.874;2022-10-31T02:18:16;11.43;;;5.80;;
10934;SDS011;5520;45.752;4.874;2022-10-31T02:20:47;12.37;;;5.30;;
10934;SDS011;5520;45.752;4.874;2022-10-31T02:23:21;9.53;;;5.30;;
10934;SDS011;5520;45.752;4.874;2022-10-31T02:28:46;10.10;;;5.13;;
10934;SDS011;5520;45.752;4.874;2022-10-31T02:31:23;12.20;;;5.20;;
10934;SDS011;5520;45.752;4.874;2022-10-31T02:33:55;13.47;;;5.67;;
10934;SDS011;5520;45.752;4.874;2022-10-31T02:36:25;11.80;;;5.60;;
10934;SDS011;5520;45.752;4.874;2022-10-31T02:38:58;9.43;;;5.93;;
10934;SDS011;5520;45.752;4.874;2022-10-31T02:41:31;13.90;;;6.30;;
10934;SDS011;5520;45.752;4.874;2022-10-31T02:44:01;16.13;;;5.60;;
10934;SDS011;5520;45.752;4.874;2022-10-31T02:46:32;11.17;;;5.60;;
10934;SDS011;5520;45.752;4.874;2022-10-31T02:49:01;8.50;;;5.07;;
10934;SDS011;5520;45.752;4.874;2022-10-31T02:51:30;11.73;;;5.23;;
10934;SDS011;5520;45.752;4.874;2022-10-31T02:53:58;14.03;;;5.83;;
10934;SDS011;5520;45.752;4.874;2022-10-31T02:56:25;13.10;;;5.57;;
10934;SDS011;5520;45.752;4.874;2022-10-31T02:58:56;14.23;;;5.40;;
10934;SDS011;5520;45.752;4.874;2022-10-31T03:01:33;9.17;;;5.70;;
10934;SDS011;5520;45.752;4.874;2022-10-31T03:04:14;9.77;;;6.03;;
10934;SDS011;5520;45.752;4.874;2022-10-31T03:06:45;13.93;;;5.70;;
10934;SDS011;5520;45.752;4.874;2022-10-31T03:09:15;10.67;;;5.13;;
10934;SDS011;5520;45.752;4.874;2022-10-31T03:11:49;10.83;;;6.07;;
10934;SDS011;5520;45.752;4.874;2022-10-31T03:14:21;13.70;;;5.87;;
10934;SDS011;5520;45.752;4.874;2022-10-31T03:16:53;17.20;;;5.50;;
10934;SDS011;5520;45.752;4.874;2022-10-31T03:19:26;11.73;;;5.53;;
10934;SDS011;5520;45.752;4.874;2022-10-31T03:21:55;11.17;;;5.70;;
10934;SDS011;5520;45.752;4.874;2022-10-31T03:24:26;9.87;;;6.87;;
10934;SDS011;5520;45.752;4.874;2022-10-31T03:26:55;15.30;;;5.67;;
10934;SDS011;5520;45.752;4.874;2022-10-31T03:29:25;10.33;;;5.40;;
10934;SDS011;5520;45.752;4.874;2022-10-31T03:31:55;9.03;;;5.13;;
10934;SDS011;5520;45.752;4.874;2022-10-31T03:34:24;10.83;;;5.30;;
10934;SDS011;5520;45.752;4.874;2022-10-31T03:36:56;12.13;;;5.53;;
10934;SDS011;5520;45.752;4.874;2022-10-31T03:39:26;10.53;;;6.00;;
10934;SDS011;5520;45.752;4.874;2022-10-31T03:41:56;11.70;;;5.07;;
10934;SDS011;5520;45.752;4.874;2022-10-31T03:44:27;10.37;;;5.73;;
10934;SDS011;5520;45.752;4.874;2022-10-31T03:46:58;7.57;;;4.73;;
10934;SDS011;5520;45.752;4.874;2022-10-31T03:49:26;12.17;;;5.47;;
10934;SDS011;5520;45.752;4.874;2022-10-31T03:51:55;11.23;;;4.93;;
10934;SDS011;5520;45.752;4.874;2022-10-31T03:54:25;13.73;;;5.30;;
10934;SDS011;5520;45.752;4.874;2022-10-31T03:56:55;9.63;;;5.70;;
10934;SDS011;5520;45.752;4.874;2022-10-31T03:59:26;8.77;;;4.97;;
10934;SDS011;5520;45.752;4.874;2022-10-31T04:02:00;11.17;;;5.33;;
10934;SDS011;5520;45.752;4.874;2022-10-31T04:04:30;15.07;;;5.27;;
10934;SDS011;5520;45.752;4.874;2022-10-31T04:07:01;13.63;;;4.90;;
10934;SDS011;5520;45.752;4.874;2022-10-31T04:09:29;12.60;;;5.50;;
10934;SDS011;5520;45.752;4.874;2022-10-31T04:11:59;13.03;;;6.23;;
10934;SDS011;5520;45.752;4.874;2022-10-31T04:14:27;8.97;;;5.60;;
10934;SDS011;5520;45.752;4.874;2022-10-31T04:16:58;12.00;;;5.30;;
10934;SDS011;5520;45.752;4.874;2022-10-31T04:19:26;10.63;;;5.10;;
10934;SDS011;5520;45.752;4.874;2022-10-31T04:22:00;16.70;;;5.77;;
10934;SDS011;5520;45.752;4.874;2022-10-31T04:24:28;11.40;;;5.27;;
10934;SDS011;5520;45.752;4.874;2022-10-31T04:26:56;13.30;;;6.57;;
10934;SDS011;5520;45.752;4.874;2022-10-31T04:29:25;10.43;;;6.53;;
10934;SDS011;5520;45.752;4.874;2022-10-31T04:31:54;10.60;;;4.87;;
10934;SDS011;5520;45.752;4.874;2022-10-31T04:34:23;10.27;;;5.43;;
10934;SDS011;5520;45.752;4.874;2022-10-31T04:36:51;10.47;;;5.50;;
10934;SDS011;5520;45.752;4.874;2022-10-31T04:39:19;8.80;;;5.30;;
10934;SDS011;5520;45.752;4.874;2022-10-31T04:41:52;14.30;;;6.40;;
10934;SDS011;5520;45.752;4.874;2022-10-31T04:44:19;8.10;;;5.57;;
10934;SDS011;5520;45.752;4.874;2022-10-31T04:46:47;13.20;;;6.63;;
10934;SDS011;5520;45.752;4.874;2022-10-31T04:49:15;12.50;;;5.87;;
10934;SDS011;5520;45.752;4.874;2022-10-31T04:51:44;8.43;;;5.50;;
10934;SDS011;5520;45.752;4.874;2022-10-31T04:54:11;13.83;;;5.97;;
10934;SDS011;5520;45.752;4.874;2022-10-31T04:56:39;15.77;;;6.23;;
10934;SDS011;5520;45.752;4.874;2022-10-31T04:59:06;15.07;;;6.87;;
10934;SDS011;5520;45.752;4.874;2022-10-31T05:01:34;11.47;;;6.10;;
10934;SDS011;5520;45.752;4.874;2022-10-31T05:04:02;10.57;;;6.57;;
10934;SDS011;5520;45.752;4.874;2022-10-31T05:06:30;9.77;;;5.40;;
10934;SDS011;5520;45.752;4.874;2022-10-31T05:08:59;13.53;;;6.30;;
10934;SDS011;5520;45.752;4.874;2022-10-31T05:11:27;12.90;;;6.23;;
10934;SDS011;5520;45.752;4.874;2022-10-31T05:13:54;11.70;;;6.30;;
10934;SDS011;5520;45.752;4.874;2022-10-31T05:16:22;13.93;;;6.27;;
10934;SDS011;5520;45.752;4.874;2022-10-31T05:18:49;15.37;;;6.10;;
10934;SDS011;5520;45.752;4.874;2022-10-31T05:21:17;9.40;;;6.17;;
10934;SDS011;5520;45.752;4.874;2022-10-31T05:23:45;14.77;;;7.30;;
10934;SDS011;5520;45.752;4.874;2022-10-31T05:26:15;7.43;;;5.53;;
10934;SDS011;5520;45.752;4.874;2022-10-31T05:28:43;23.80;;;6.90;;
10934;SDS011;5520;45.752;4.874;2022-10-31T05:31:10;13.03;;;6.30;;
10934;SDS011;5520;45.752;4.874;2022-10-31T05:33:38;15.57;;;6.47;;
10934;SDS011;5520;45.752;4.874;2022-10-31T05:36:06;9.90;;;5.93;;
10934;SDS011;5520;45.752;4.874;2022-10-31T05:38:33;12.50;;;6.40;;
10934;SDS011;5520;45.752;4.874;2022-10-31T05:41:01;14.63;;;6.30;;
10934;SDS011;5520;45.752;4.874;2022-10-31T05:43:30;8.13;;;6.07;;
10934;SDS011;5520;45.752;4.874;2022-10-31T05:46:01;13.53;;;6.50;;
10934;SDS011;5520;45.752;4.874;2022-10-31T05:48:29;19.73;;;7.67;;
10934;SDS011;5520;45.752;4.874;2022-10-31T05:50:59;11.47;;;7.90;;
10934;SDS011;5520;45.752;4.874;2022-10-31T05:53:29;15.90;;;6.70;;
10934;SDS011;5520;45.752;4.874;2022-10-31T05:55:56;12.40;;;7.37;;
10934;SDS011;5520;45.752;4.874;2022-10-31T05:58:24;13.27;;;6.53;;
10934;SDS011;5520;45.752;4.874;2022-10-31T06:00:54;17.70;;;6.70;;
10934;SDS011;5520;45.752;4.874;2022-10-31T06:03:21;13.70;;;5.80;;
10934;SDS011;5520;45.752;4.874;2022-10-31T06:05:49;13.57;;;6.37;;
10934;SDS011;5520;45.752;4.874;2022-10-31T06:08:20;11.03;;;6.30;;
10934;SDS011;5520;45.752;4.874;2022-10-31T06:10:48;10.63;;;6.47;;
10934;SDS011;5520;45.752;4.874;2022-10-31T06:13:16;12.83;;;6.37;;
10934;SDS011;5520;45.752;4.874;2022-10-31T06:15:43;16.27;;;6.70;;
10934;SDS011;5520;45.752;4.874;2022-10-31T06:18:12;13.80;;;6.70;;
10934;SDS011;5520;45.752;4.874;2022-10-31T06:20:40;13.80;;;7.57;;
10934;SDS011;5520;45.752;4.874;2022-10-31T06:23:08;13.80;;;7.90;;
10934;SDS011;5520;45.752;4.874;2022-10-31T06:25:35;12.10;;;7.03;;
10934;SDS011;5520;45.752;4.874;2022-10-31T06:28:03;14.77;;;7.00;;
10934;SDS011;5520;45.752;4.874;2022-10-31T06:30:31;18.37;;;7.10;;
10934;SDS011;5520;45.752;4.874;2022-10-31T06:33:04;15.33;;;6.97;;
10934;SDS011;5520;45.752;4.874;2022-10-31T06:35:33;14.13;;;6.47;;
10934;SDS011;5520;45.752;4.874;2022-10-31T06:38:01;11.80;;;6.87;;
10934;SDS011;5520;45.752;4.874;2022-10-31T06:40:31;11.27;;;7.00;;
10934;SDS011;5520;45.752;4.874;2022-10-31T06:42:59;21.00;;;6.47;;
10934;SDS011;5520;45.752;4.874;2022-10-31T06:45:27;13.90;;;6.47;;
10934;SDS011;5520;45.752;4.874;2022-10-31T06:47:56;18.40;;;6.83;;
10934;SDS011;5520;45.752;4.874;2022-10-31T06:50:44;12.27;;;6.50;;
10934;SDS011;5520;45.752;4.874;2022-10-31T06:53:12;12.13;;;6.03;;
10934;SDS011;5520;45.752;4.874;2022-10-31T06:55:40;12.87;;;6.80;;
10934;SDS011;5520;45.752;4.874;2022-10-31T06:58:08;12.13;;;5.87;;
10934;SDS011;5520;45.752;4.874;2022-10-31T07:00:37;13.10;;;5.70;;
10934;SDS011;5520;45.752;4.874;2022-10-31T07:03:05;14.57;;;7.10;;
10934;SDS011;5520;45.752;4.874;2022-10-31T07:05:33;11.43;;;6.60;;
10934;SDS011;5520;45.752;4.874;2022-10-31T07:08:03;16.50;;;6.77;;
10934;SDS011;5520;45.752;4.874;2022-10-31T07:10:31;11.60;;;6.17;;
10934;SDS011;5520;45.752;4.874;2022-10-31T07:13:06;15.53;;;6.03;;
10934;SDS011;5520;45.752;4.874;2022-10-31T07:15:36;15.00;;;6.53;;
10934;SDS011;5520;45.752;4.874;2022-10-31T07:18:04;12.20;;;5.80;;
10934;SDS011;5520;45.752;4.874;2022-10-31T07:20:32;11.67;;;6.43;;
10934;SDS011;5520;45.752;4.874;2022-10-31T07:23:00;9.90;;;5.97;;
10934;SDS011;5520;45.752;4.874;2022-10-31T07:25:30;17.80;;;6.17;;
10934;SDS011;5520;45.752;4.874;2022-10-31T07:28:00;11.40;;;6.30;;
10934;SDS011;5520;45.752;4.874;2022-10-31T07:30:28;14.20;;;6.37;;
10934;SDS011;5520;45.752;4.874;2022-10-31T07:32:56;12.13;;;6.80;;
10934;SDS011;5520;45.752;4.874;2022-10-31T07:35:25;15.30;;;6.87;;
10934;SDS011;5520;45.752;4.874;2022-10-31T07:37:54;15.57;;;6.97;;
10934;SDS011;5520;45.752;4.874;2022-10-31T07:40:25;16.27;;;6.57;;
10934;SDS011;5520;45.752;4.874;2022-10-31T07:42:54;19.07;;;7.17;;
10934;SDS011;5520;45.752;4.874;2022-10-31T07:45:22;11.73;;;6.20;;
10934;SDS011;5520;45.752;4.874;2022-10-31T07:47:50;14.80;;;6.93;;
10934;SDS011;5520;45.752;4.874;2022-10-31T07:50:18;14.23;;;6.77;;
10934;SDS011;5520;45.752;4.874;2022-10-31T07:52:46;9.10;;;6.23;;
10934;SDS011;5520;45.752;4.874;2022-10-31T07:55:14;15.23;;;7.00;;
10934;SDS011;5520;45.752;4.874;2022-10-31T07:57:42;13.73;;;6.50;;
10934;SDS011;5520;45.752;4.874;2022-10-31T08:00:11;15.33;;;7.23;;
10934;SDS011;5520;45.752;4.874;2022-10-31T08:02:39;18.87;;;7.97;;
10934;SDS011;5520;45.752;4.874;2022-10-31T08:05:07;13.77;;;7.27;;
10934;SDS011;5520;45.752;4.874;2022-10-31T08:07:35;12.63;;;6.73;;
10934;SDS011;5520;45.752;4.874;2022-10-31T08:10:03;12.30;;;7.20;;
10934;SDS011;5520;45.752;4.874;2022-10-31T08:12:31;15.33;;;7.47;;
10934;SDS011;5520;45.752;4.874;2022-10-31T08:14:59;15.37;;;6.60;;
10934;SDS011;5520;45.752;4.874;2022-10-31T08:17:28;13.67;;;6.90;;
10934;SDS011;5520;45.752;4.874;2022-10-31T08:19:57;13.93;;;7.03;;
10934;SDS011;5520;45.752;4.874;2022-10-31T08:22:24;16.70;;;6.07;;
10934;SDS011;5520;45.752;4.874;2022-10-31T08:24:52;13.13;;;6.70;;
10934;SDS011;5520;45.752;4.874;2022-10-31T08:27:20;15.17;;;7.20;;
10934;SDS011;5520;45.752;4.874;2022-10-31T08:29:47;15.60;;;7.73;;
10934;SDS011;5520;45.752;4.874;2022-10-31T08:32:15;16.03;;;7.07;;
10934;SDS011;5520;45.752;4.874;2022-10-31T08:34:44;17.03;;;6.53;;
10934;SDS011;5520;45.752;4.874;2022-10-31T08:37:12;15.67;;;6.53;;
10934;SDS011;5520;45.752;4.874;2022-10-31T08:39:45;19.90;;;7.33;;
10934;SDS011;5520;45.752;4.874;2022-10-31T08:42:12;20.20;;;6.90;;
10934;SDS011;5520;45.752;4.874;2022-10-31T08:44:40;11.60;;;6.37;;
10934;SDS011;5520;45.752;4.874;2022-10-31T08:47:08;9.10;;;6.30;;
10934;SDS011;5520;45.752;4.874;2022-10-31T08:49:35;13.03;;;6.23;;
10934;SDS011;5520;45.752;4.874;2022-10-31T08:52:04;13.53;;;5.70;;
10934;SDS011;5520;45.752;4.874;2022-10-31T08:54:39;18.43;;;7.27;;
10934;SDS011;5520;45.752;4.874;2022-10-31T08:57:07;14.07;;;6.33;;
10934;SDS011;5520;45.752;4.874;2022-10-31T08:59:34;11.30;;;6.17;;
10934;SDS011;5520;45.752;4.874;2022-10-31T09:02:02;14.17;;;6.43;;
10934;SDS011;5520;45.752;4.874;2022-10-31T09:04:30;15.97;;;7.10;;
10934;SDS011;5520;45.752;4.874;2022-10-31T09:07:01;13.67;;;6.33;;
10934;SDS011;5520;45.752;4.874;2022-10-31T09:09:50;10.63;;;6.17;;
10934;SDS011;5520;45.752;4.874;2022-10-31T09:12:17;11.90;;;5.87;;
10934;SDS011;5520;45.752;4.874;2022-10-31T09:14:45;11.60;;;5.70;;
10934;SDS011;5520;45.752;4.874;2022-10-31T09:17:13;16.63;;;5.87;;
10934;SDS011;5520;45.752;4.874;2022-10-31T09:19:40;11.57;;;5.60;;
10934;SDS011;5520;45.752;4.874;2022-10-31T09:22:08;8.67;;;5.00;;
10934;SDS011;5520;45.752;4.874;2022-10-31T09:24:35;16.30;;;5.40;;
10934;SDS011;5520;45.752;4.874;2022-10-31T09:27:04;10.87;;;5.60;;
10934;SDS011;5520;45.752;4.874;2022-10-31T09:29:32;13.73;;;5.13;;
10934;SDS011;5520;45.752;4.874;2022-10-31T09:32:00;9.80;;;5.27;;
10934;SDS011;5520;45.752;4.874;2022-10-31T09:34:28;13.10;;;5.20;;
10934;SDS011;5520;45.752;4.874;2022-10-31T09:36:55;13.07;;;5.60;;
10934;SDS011;5520;45.752;4.874;2022-10-31T09:39:23;13.57;;;5.70;;
10934;SDS011;5520;45.752;4.874;2022-10-31T09:41:58;12.70;;;5.43;;
10934;SDS011;5520;45.752;4.874;2022-10-31T09:44:33;10.53;;;4.87;;
10934;SDS011;5520;45.752;4.874;2022-10-31T09:47:07;10.63;;;5.67;;
10934;SDS011;5520;45.752;4.874;2022-10-31T09:49:42;10.17;;;5.27;;
10934;SDS011;5520;45.752;4.874;2022-10-31T09:52:16;10.47;;;5.17;;
10934;SDS011;5520;45.752;4.874;2022-10-31T09:54:48;8.93;;;4.87;;
10934;SDS011;5520;45.752;4.874;2022-10-31T09:57:17;8.73;;;5.33;;
10934;SDS011;5520;45.752;4.874;2022-10-31T09:59:48;11.93;;;5.70;;
10934;SDS011;5520;45.752;4.874;2022-10-31T10:02:17;15.80;;;5.90;;
10934;SDS011;5520;45.752;4.874;2022-10-31T10:04:48;12.70;;;5.60;;
10934;SDS011;5520;45.752;4.874;2022-10-31T10:07:21;13.67;;;4.53;;
10934;SDS011;5520;45.752;4.874;2022-10-31T10:09:50;13.50;;;3.80;;
10934;SDS011;5520;45.752;4.874;2022-10-31T10:12:19;13.70;;;4.30;;
10934;SDS011;5520;45.752;4.874;2022-10-31T10:14:56;11.37;;;4.53;;
10934;SDS011;5520;45.752;4.874;2022-10-31T10:17:31;10.53;;;4.00;;
10934;SDS011;5520;45.752;4.874;2022-10-31T10:20:18;5.23;;;3.33;;
10934;SDS011;5520;45.752;4.874;2022-10-31T10:22:51;10.57;;;3.50;;
10934;SDS011;5520;45.752;4.874;2022-10-31T10:25:20;5.67;;;3.20;;
10934;SDS011;5520;45.752;4.874;2022-10-31T10:27:52;9.67;;;4.23;;
10934;SDS011;5520;45.752;4.874;2022-10-31T10:30:25;8.90;;;3.30;;
10934;SDS011;5520;45.752;4.874;2022-10-31T10:32:56;12.93;;;3.60;;
10934;SDS011;5520;45.752;4.874;2022-10-31T10:35:26;7.77;;;3.00;;
10934;SDS011;5520;45.752;4.874;2022-10-31T10:37:56;12.63;;;3.33;;
10934;SDS011;5520;45.752;4.874;2022-10-31T10:40:27;9.93;;;3.33;;
10934;SDS011;5520;45.752;4.874;2022-10-31T10:43:00;6.67;;;2.50;;
10934;SDS011;5520;45.752;4.874;2022-10-31T10:46:05;12.93;;;3.40;;
10934;SDS011;5520;45.752;4.874;2022-10-31T10:49:00;9.83;;;3.47;;
10934;SDS011;5520;45.752;4.874;2022-10-31T10:51:32;6.27;;;2.83;;
10934;SDS011;5520;45.752;4.874;2022-10-31T10:54:30;8.23;;;2.73;;
10934;SDS011;5520;45.752;4.874;2022-10-31T10:57:04;11.17;;;2.80;;
10934;SDS011;5520;45.752;4.874;2022-10-31T10:59:34;6.63;;;2.67;;
10934;SDS011;5520;45.752;4.874;2022-10-31T11:02:08;14.73;;;2.93;;
10934;SDS011;5520;45.752;4.874;2022-10-31T11:04:42;11.40;;;3.23;;
10934;SDS011;5520;45.752;4.874;2022-10-31T11:07:11;9.63;;;2.77;;
10934;SDS011;5520;45.752;4.874;2022-10-31T11:09:38;7.10;;;2.33;;
10934;SDS011;5520;45.752;4.874;2022-10-31T11:12:07;11.23;;;3.20;;
10934;SDS011;5520;45.752;4.874;2022-10-31T11:14:35;13.03;;;2.87;;
10934;SDS011;5520;45.752;4.874;2022-10-31T11:17:09;9.03;;;3.97;;
10934;SDS011;5520;45.752;4.874;2022-10-31T11:19:38;11.27;;;2.80;;
10934;SDS011;5520;45.752;4.874;2022-10-31T11:22:06;9.70;;;3.30;;
10934;SDS011;5520;45.752;4.874;2022-10-31T11:24:39;8.77;;;2.73;;
10934;SDS011;5520;45.752;4.874;2022-10-31T11:27:11;9.93;;;3.80;;
10934;SDS011;5520;45.752;4.874;2022-10-31T11:29:40;12.13;;;3.73;;
10934;SDS011;5520;45.752;4.874;2022-10-31T11:32:14;11.83;;;2.77;;
10934;SDS011;5520;45.752;4.874;2022-10-31T11:34:44;12.97;;;3.33;;
10934;SDS011;5520;45.752;4.874;2022-10-31T11:37:12;7.03;;;2.77;;
10934;SDS011;5520;45.752;4.874;2022-10-31T11:39:43;7.63;;;2.90;;
10934;SDS011;5520;45.752;4.874;2022-10-31T11:42:11;6.50;;;3.33;;
10934;SDS011;5520;45.752;4.874;2022-10-31T11:44:41;6.93;;;2.93;;
10934;SDS011;5520;45.752;4.874;2022-10-31T11:47:12;6.63;;;2.87;;
10934;SDS011;5520;45.752;4.874;2022-10-31T11:49:41;8.80;;;3.83;;
10934;SDS011;5520;45.752;4.874;2022-10-31T11:52:12;13.03;;;2.97;;
10934;SDS011;5520;45.752;4.874;2022-10-31T11:54:41;7.83;;;3.00;;
10934;SDS011;5520;45.752;4.874;2022-10-31T11:57:21;11.50;;;3.30;;
10934;SDS011;5520;45.752;4.874;2022-10-31T11:59:50;12.77;;;3.20;;
10934;SDS011;5520;45.752;4.874;2022-10-31T12:02:20;9.63;;;2.67;;
10934;SDS011;5520;45.752;4.874;2022-10-31T12:04:50;7.47;;;3.53;;
10934;SDS011;5520;45.752;4.874;2022-10-31T12:07:18;7.27;;;2.80;;
10934;SDS011;5520;45.752;4.874;2022-10-31T12:09:46;11.07;;;2.97;;
10934;SDS011;5520;45.752;4.874;2022-10-31T12:12:31;7.00;;;2.73;;
10934;SDS011;5520;45.752;4.874;2022-10-31T12:15:09;8.73;;;2.87;;
10934;SDS011;5520;45.752;4.874;2022-10-31T12:17:42;7.70;;;3.07;;
10934;SDS011;5520;45.752;4.874;2022-10-31T12:20:16;15.87;;;3.57;;
10934;SDS011;5520;45.752;4.874;2022-10-31T12:22:51;10.27;;;2.97;;
10934;SDS011;5520;45.752;4.874;2022-10-31T12:25:24;10.70;;;3.17;;
10934;SDS011;5520;45.752;4.874;2022-10-31T12:28:01;10.50;;;3.17;;
10934;SDS011;5520;45.752;4.874;2022-10-31T12:30:33;13.63;;;3.17;;
10934;SDS011;5520;45.752;4.874;2022-10-31T12:33:11;8.83;;;2.60;;
10934;SDS011;5520;45.752;4.874;2022-10-31T12:35:45;11.20;;;3.10;;
10934;SDS011;5520;45.752;4.874;2022-10-31T12:38:26;7.70;;;2.60;;
10934;SDS011;5520;45.752;4.874;2022-10-31T12:41:01;10.27;;;2.70;;
10934;SDS011;5520;45.752;4.874;2022-10-31T12:43:35;10.43;;;3.03;;
10934;SDS011;5520;45.752;4.874;2022-10-31T12:46:04;9.40;;;3.43;;
10934;SDS011;5520;45.752;4.874;2022-10-31T12:48:42;9.90;;;2.90;;
10934;SDS011;5520;45.752;4.874;2022-10-31T12:51:19;10.23;;;3.03;;
10934;SDS011;5520;45.752;4.874;2022-10-31T12:53:53;6.47;;;2.70;;
10934;SDS011;5520;45.752;4.874;2022-10-31T12:56:29;8.70;;;2.77;;
10934;SDS011;5520;45.752;4.874;2022-10-31T12:58:59;8.97;;;2.63;;
10934;SDS011;5520;45.752;4.874;2022-10-31T13:01:29;8.93;;;2.50;;
10934;SDS011;5520;45.752;4.874;2022-10-31T13:04:01;5.60;;;2.87;;
10934;SDS011;5520;45.752;4.874;2022-10-31T13:06:29;8.27;;;3.03;;
10934;SDS011;5520;45.752;4.874;2022-10-31T13:09:00;12.70;;;2.87;;
10934;SDS011;5520;45.752;4.874;2022-10-31T13:11:30;11.23;;;3.00;;
10934;SDS011;5520;45.752;4.874;2022-10-31T13:13:59;9.07;;;2.80;;
10934;SDS011;5520;45.752;4.874;2022-10-31T13:16:29;6.70;;;2.60;;
10934;SDS011;5520;45.752;4.874;2022-10-31T13:19:01;6.53;;;2.03;;
10934;SDS011;5520;45.752;4.874;2022-10-31T13:21:33;4.10;;;2.07;;
10934;SDS011;5520;45.752;4.874;2022-10-31T13:24:03;7.67;;;2.07;;
10934;SDS011;5520;45.752;4.874;2022-10-31T13:26:34;6.50;;;2.47;;
10934;SDS011;5520;45.752;4.874;2022-10-31T13:29:04;12.93;;;2.53;;
10934;SDS011;5520;45.752;4.874;2022-10-31T13:31:34;13.60;;;2.70;;
10934;SDS011;5520;45.752;4.874;2022-10-31T13:34:04;9.90;;;3.50;;
10934;SDS011;5520;45.752;4.874;2022-10-31T13:36:38;8.40;;;2.60;;
10934;SDS011;5520;45.752;4.874;2022-10-31T13:39:12;8.67;;;2.57;;
10934;SDS011;5520;45.752;4.874;2022-10-31T13:41:43;8.93;;;2.57;;
10934;SDS011;5520;45.752;4.874;2022-10-31T13:44:13;5.47;;;2.53;;
10934;SDS011;5520;45.752;4.874;2022-10-31T13:46:42;9.37;;;2.73;;
10934;SDS011;5520;45.752;4.874;2022-10-31T13:52:13;9.53;;;2.50;;
10934;SDS011;5520;45.752;4.874;2022-10-31T13:54:42;11.67;;;3.50;;
10934;SDS011;5520;45.752;4.874;2022-10-31T13:57:14;10.13;;;3.37;;
10934;SDS011;5520;45.752;4.874;2022-10-31T13:59:46;9.80;;;3.10;;
10934;SDS011;5520;45.752;4.874;2022-10-31T14:02:16;7.50;;;2.93;;
10934;SDS011;5520;45.752;4.874;2022-10-31T14:04:44;6.97;;;3.33;;
10934;SDS011;5520;45.752;4.874;2022-10-31T14:07:15;14.50;;;4.30;;
10934;SDS011;5520;45.752;4.874;2022-10-31T14:09:49;6.00;;;3.10;;
10934;SDS011;5520;45.752;4.874;2022-10-31T14:12:22;12.87;;;3.37;;
10934;SDS011;5520;45.752;4.874;2022-10-31T14:14:52;5.17;;;2.87;;
10934;SDS011;5520;45.752;4.874;2022-10-31T14:17:22;7.07;;;2.90;;
10934;SDS011;5520;45.752;4.874;2022-10-31T14:20:02;9.60;;;3.27;;
10934;SDS011;5520;45.752;4.874;2022-10-31T14:22:31;9.80;;;3.73;;
10934;SDS011;5520;45.752;4.874;2022-10-31T14:27:49;8.60;;;3.37;;
10934;SDS011;5520;45.752;4.874;2022-10-31T14:30:19;8.83;;;3.37;;
10934;SDS011;5520;45.752;4.874;2022-10-31T14:32:52;9.63;;;3.37;;
10934;SDS011;5520;45.752;4.874;2022-10-31T14:35:20;5.93;;;3.00;;
10934;SDS011;5520;45.752;4.874;2022-10-31T14:38:11;11.13;;;3.50;;
10934;SDS011;5520;45.752;4.874;2022-10-31T14:40:48;7.73;;;2.87;;
10934;SDS011;5520;45.752;4.874;2022-10-31T14:43:23;8.93;;;3.53;;
10934;SDS011;5520;45.752;4.874;2022-10-31T14:45:56;9.27;;;3.77;;
10934;SDS011;5520;45.752;4.874;2022-10-31T14:48:33;12.50;;;4.23;;
10934;SDS011;5520;45.752;4.874;2022-10-31T14:51:03;11.00;;;3.70;;
10934;SDS011;5520;45.752;4.874;2022-10-31T14:53:40;7.27;;;3.07;;
10934;SDS011;5520;45.752;4.874;2022-10-31T14:56:10;13.30;;;3.77;;
10934;SDS011;5520;45.752;4.874;2022-10-31T14:58:39;6.50;;;3.97;;
10934;SDS011;5520;45.752;4.874;2022-10-31T15:01:15;10.60;;;4.50;;
10934;SDS011;5520;45.752;4.874;2022-10-31T15:03:45;8.90;;;3.30;;
10934;SDS011;5520;45.752;4.874;2022-10-31T15:06:36;9.77;;;3.30;;
10934;SDS011;5520;45.752;4.874;2022-10-31T15:09:21;10.70;;;4.10;;
10934;SDS011;5520;45.752;4.874;2022-10-31T15:11:49;10.57;;;3.27;;
10934;SDS011;5520;45.752;4.874;2022-10-31T15:14:21;11.20;;;3.90;;
10934;SDS011;5520;45.752;4.874;2022-10-31T15:16:49;8.53;;;3.20;;
10934;SDS011;5520;45.752;4.874;2022-10-31T15:19:19;9.27;;;3.63;;
10934;SDS011;5520;45.752;4.874;2022-10-31T15:21:49;11.97;;;3.73;;